Time;durP1;ratioP1;P1;durP2;ratioP2;P2;SDS_P1;SDS_P2;PMS_P1;PMS_P2;Temp;Humidity;BMP_temperature;BMP_pressure;BME280_temperature;BME280_humidity;BME280_pressure;Samples;Min_cycle;Max_cycle;Signal;HPM_P1;HPM_P2
2022/08/08 00:01:27;;;;;;;1.20;1.10;;;;;;;;;;10452019;28;20499;-55
2022/08/08 00:06:47;;;;;;;2.45;1.10;;;;;;;;;;10467281;28;20264;-53
2022/08/08 00:11:58;;;;;;;1.42;1.10;;;;;;;;;;10451314;28;20025;-55
2022/08/08 00:17:10;;;;;;;0.88;0.88;;;;;;;;;;10452553;28;20057;-56
2022/08/08 00:22:24;;;;;;;2.58;0.90;;;;;;;;;;10451178;28;20040;-55
2022/08/08 00:27:26;;;;;;;1.73;1.10;;;;;;;;;;10452483;28;20040;-55
2022/08/08 00:32:56;;;;;;;1.27;1.00;;;;;;;;;;10450960;28;20017;-59
2022/08/08 00:38:18;;;;;;;4.43;1.13;;;;;;;;;;10451599;28;20059;-54
2022/08/08 00:44:04;;;;;;;2.00;0.95;;;;;;;;;;10452180;28;20506;-54
2022/08/08 00:49:36;;;;;;;1.88;1.05;;;;;;;;;;10450706;28;20423;-55
2022/08/08 00:55:20;;;;;;;1.23;0.90;;;;;;;;;;10450935;28;20388;-55
2022/08/08 01:00:26;;;;;;;0.95;0.95;;;;;;;;;;10450903;28;20033;-55
2022/08/08 01:06:23;;;;;;;1.02;0.90;;;;;;;;;;10466611;28;20131;-61
2022/08/08 01:11:36;;;;;;;3.10;1.40;;;;;;;;;;10451257;28;20239;-54
2022/08/08 01:17:18;;;;;;;2.05;1.17;;;;;;;;;;10451002;28;20369;-54
2022/08/08 01:23:04;;;;;;;1.20;1.10;;;;;;;;;;10415880;28;20120;-53
2022/08/08 01:28:41;;;;;;;0.88;0.88;;;;;;;;;;10438911;28;20131;-55
2022/08/08 01:34:09;;;;;;;0.90;0.90;;;;;;;;;;10448824;28;20128;-55
2022/08/08 01:39:41;;;;;;;1.52;1.10;;;;;;;;;;10449302;28;20033;-54
2022/08/08 01:45:01;;;;;;;0.80;0.80;;;;;;;;;;10447896;28;20106;-54
2022/08/08 01:50:25;;;;;;;1.23;0.80;;;;;;;;;;10424056;28;20249;-54
2022/08/08 01:55:41;;;;;;;1.00;1.00;;;;;;;;;;10431628;28;20743;-56
2022/08/08 02:00:57;;;;;;;0.93;0.80;;;;;;;;;;10436898;28;20104;-56
2022/08/08 02:06:54;;;;;;;3.00;0.90;;;;;;;;;;10424233;28;20057;-55
2022/08/08 02:12:00;;;;;;;0.80;0.80;;;;;;;;;;10449140;28;20032;-54
2022/08/08 02:17:16;;;;;;;1.08;0.82;;;;;;;;;;10431272;28;20033;-62
2022/08/08 02:23:09;;;;;;;0.93;0.90;;;;;;;;;;10440641;28;20358;-55
2022/08/08 02:28:17;;;;;;;2.25;1.00;;;;;;;;;;10437465;28;20485;-55
2022/08/08 02:34:09;;;;;;;0.95;0.90;;;;;;;;;;10435848;28;20396;-56
2022/08/08 02:39:23;;;;;;;1.17;0.82;;;;;;;;;;10456038;28;20140;-57
2022/08/08 02:45:16;;;;;;;0.80;0.80;;;;;;;;;;10454877;28;20032;-54
2022/08/08 02:51:02;;;;;;;1.00;0.90;;;;;;;;;;10444027;28;20025;-55
2022/08/08 02:56:36;;;;;;;2.13;0.90;;;;;;;;;;10448593;28;20381;-55
2022/08/08 03:01:49;;;;;;;0.80;0.80;;;;;;;;;;10452479;28;20423;-54
2022/08/08 03:06:49;;;;;;;0.93;0.70;;;;;;;;;;10496612;22;20665;-59
2022/08/08 03:12:20;;;;;;;0.80;0.77;;;;;;;;;;10496146;28;20029;-57
2022/08/08 03:17:54;;;;;;;0.77;0.77;;;;;;;;;;10484030;28;20505;-59
2022/08/08 03:22:55;;;;;;;0.70;0.70;;;;;;;;;;10469780;28;20044;-57
2022/08/08 03:28:03;;;;;;;0.90;0.88;;;;;;;;;;10496631;28;20020;-56
2022/08/08 03:33:19;;;;;;;1.45;0.80;;;;;;;;;;10495686;28;20020;-57
2022/08/08 03:38:21;;;;;;;0.80;0.80;;;;;;;;;;10476079;28;20023;-57
2022/08/08 03:43:22;;;;;;;0.80;0.73;;;;;;;;;;10487171;28;20028;-57
2022/08/08 03:48:22;;;;;;;0.77;0.77;;;;;;;;;;10493654;28;20036;-58
2022/08/08 03:53:24;;;;;;;0.77;0.77;;;;;;;;;;10481357;28;20017;-56
2022/08/08 03:58:25;;;;;;;0.85;0.80;;;;;;;;;;10480904;28;20403;-57
2022/08/08 04:03:36;;;;;;;0.70;0.70;;;;;;;;;;10493178;28;20031;-55
2022/08/08 04:08:37;;;;;;;0.82;0.75;;;;;;;;;;10478420;28;20025;-57
2022/08/08 04:13:40;;;;;;;0.60;0.60;;;;;;;;;;10486235;28;20418;-58
2022/08/08 04:18:41;;;;;;;3.20;0.85;;;;;;;;;;10481621;28;20114;-57
2022/08/08 04:23:42;;;;;;;1.00;0.90;;;;;;;;;;10493328;28;20060;-57
2022/08/08 04:28:42;;;;;;;0.70;0.70;;;;;;;;;;10490661;28;20029;-58
2022/08/08 04:33:43;;;;;;;1.08;0.90;;;;;;;;;;10484269;28;20047;-56
2022/08/08 04:38:43;;;;;;;3.60;0.80;;;;;;;;;;10493682;28;20111;-59
2022/08/08 04:43:44;;;;;;;4.00;1.00;;;;;;;;;;10475527;28;20400;-58
2022/08/08 04:48:44;;;;;;;1.23;1.02;;;;;;;;;;10482027;28;20093;-58
2022/08/08 04:53:45;;;;;;;2.38;1.23;;;;;;;;;;10492193;28;20028;-57
2022/08/08 04:58:45;;;;;;;1.08;1.00;;;;;;;;;;10475179;28;20036;-57
2022/08/08 05:03:46;;;;;;;1.30;1.13;;;;;;;;;;10478031;28;20036;-58
2022/08/08 05:08:47;;;;;;;2.72;1.08;;;;;;;;;;10493472;28;20031;-57
2022/08/08 05:13:47;;;;;;;3.00;1.10;;;;;;;;;;10478064;28;20048;-56
2022/08/08 05:18:48;;;;;;;1.25;1.10;;;;;;;;;;10477170;28;20494;-57
2022/08/08 05:23:49;;;;;;;1.30;1.17;;;;;;;;;;10490180;28;20349;-58
2022/08/08 05:28:49;;;;;;;1.58;1.17;;;;;;;;;;10478147;28;20029;-57
2022/08/08 05:33:50;;;;;;;1.92;1.00;;;;;;;;;;10468043;28;20103;-57
2022/08/08 05:38:52;;;;;;;2.60;1.23;;;;;;;;;;10487982;28;20541;-57
2022/08/08 05:44:10;;;;;;;2.17;1.23;;;;;;;;;;10491376;28;20036;-58
2022/08/08 05:49:13;;;;;;;2.10;1.15;;;;;;;;;;10453580;28;20029;-57
2022/08/08 05:54:15;;;;;;;2.60;1.08;;;;;;;;;;10472620;28;20025;-57
2022/08/08 05:59:22;;;;;;;3.28;1.10;;;;;;;;;;10471142;28;20029;-57
2022/08/08 06:04:27;;;;;;;1.40;1.17;;;;;;;;;;10477987;28;20048;-56
2022/08/08 06:09:35;;;;;;;1.65;1.13;;;;;;;;;;10482371;28;20078;-57
2022/08/08 06:14:36;;;;;;;1.77;1.52;;;;;;;;;;10477022;28;20290;-57
2022/08/08 06:19:39;;;;;;;1.55;1.08;;;;;;;;;;10501491;28;20282;-57
2022/08/08 06:24:39;;;;;;;0.80;0.80;;;;;;;;;;10480238;28;20025;-59
2022/08/08 06:30:07;;;;;;;1.13;1.05;;;;;;;;;;10490461;28;20028;-58
2022/08/08 06:35:12;;;;;;;2.05;1.00;;;;;;;;;;10490263;28;20024;-56
2022/08/08 06:40:14;;;;;;;2.47;1.08;;;;;;;;;;10483613;28;20167;-58
2022/08/08 06:45:15;;;;;;;1.00;1.00;;;;;;;;;;10462551;28;20033;-57
2022/08/08 06:50:17;;;;;;;1.40;0.90;;;;;;;;;;10461459;28;20100;-57
2022/08/08 06:55:20;;;;;;;2.15;1.00;;;;;;;;;;10447885;28;20216;-57
2022/08/08 07:00:21;;;;;;;2.35;1.15;;;;;;;;;;10476741;28;20510;-57
2022/08/08 07:05:24;;;;;;;0.93;0.93;;;;;;;;;;10476548;28;20057;-57
2022/08/08 07:10:29;;;;;;;1.42;0.80;;;;;;;;;;10476591;28;20408;-57
2022/08/08 07:15:58;;;;;;;1.23;1.10;;;;;;;;;;10462311;28;20028;-57
2022/08/08 07:21:06;;;;;;;1.05;0.80;;;;;;;;;;10463428;28;20036;-57
2022/08/08 07:26:09;;;;;;;1.40;0.80;;;;;;;;;;10461047;28;20076;-58
2022/08/08 07:31:10;;;;;;;0.90;0.90;;;;;;;;;;10469414;28;20032;-57
2022/08/08 07:36:12;;;;;;;1.30;1.05;;;;;;;;;;10482318;28;20032;-58
2022/08/08 07:41:17;;;;;;;1.35;0.80;;;;;;;;;;10483461;28;20039;-57
2022/08/08 07:46:17;;;;;;;1.00;0.95;;;;;;;;;;10483305;28;20052;-56
2022/08/08 07:51:21;;;;;;;1.00;0.98;;;;;;;;;;10496419;28;20032;-57
2022/08/08 07:56:26;;;;;;;1.00;0.90;;;;;;;;;;10473474;28;20099;-58
2022/08/08 08:01:34;;;;;;;1.77;1.20;;;;;;;;;;10490007;28;20021;-55
2022/08/08 08:06:36;;;;;;;2.25;1.00;;;;;;;;;;10480983;28;20055;-56
2022/08/08 08:11:41;;;;;;;1.20;1.10;;;;;;;;;;10496782;28;20032;-55
2022/08/08 08:16:44;;;;;;;1.65;1.10;;;;;;;;;;10484821;28;20441;-56
2022/08/08 08:21:47;;;;;;;1.10;1.08;;;;;;;;;;10488528;28;20033;-58
2022/08/08 08:26:48;;;;;;;1.23;1.13;;;;;;;;;;10494715;28;20055;-57
2022/08/08 08:31:48;;;;;;;4.78;1.20;;;;;;;;;;10480107;28;20048;-57
2022/08/08 08:36:49;;;;;;;1.23;1.15;;;;;;;;;;10473678;28;20032;-57
2022/08/08 08:41:51;;;;;;;1.25;1.10;;;;;;;;;;10479543;28;20032;-56
2022/08/08 08:46:52;;;;;;;1.38;1.15;;;;;;;;;;10479231;28;20032;-57
2022/08/08 08:51:57;;;;;;;1.50;1.40;;;;;;;;;;10485213;28;20070;-58
2022/08/08 08:56:59;;;;;;;1.73;1.30;;;;;;;;;;10477418;28;20056;-57
2022/08/08 09:02:00;;;;;;;1.38;1.27;;;;;;;;;;10480675;28;20029;-56
2022/08/08 09:07:02;;;;;;;1.30;1.20;;;;;;;;;;10477936;28;20057;-57
2022/08/08 09:12:05;;;;;;;1.50;1.40;;;;;;;;;;10492774;28;20059;-57
2022/08/08 09:17:06;;;;;;;1.40;1.30;;;;;;;;;;10492350;28;20032;-56
2022/08/08 09:22:07;;;;;;;1.80;1.70;;;;;;;;;;10484060;28;20096;-57
2022/08/08 09:27:08;;;;;;;1.98;1.80;;;;;;;;;;10492365;28;20075;-59
2022/08/08 09:32:20;;;;;;;1.65;1.55;;;;;;;;;;10492288;28;20070;-57
2022/08/08 09:37:28;;;;;;;2.65;1.73;;;;;;;;;;10463905;28;20082;-57
2022/08/08 09:42:57;;;;;;;2.17;1.60;;;;;;;;;;10466182;28;20037;-58
2022/08/08 09:48:02;;;;;;;1.80;1.70;;;;;;;;;;10464527;28;20068;-57
2022/08/08 09:53:05;;;;;;;2.08;1.85;;;;;;;;;;10477328;28;20020;-57
2022/08/08 09:58:16;;;;;;;2.00;1.80;;;;;;;;;;10477513;28;20266;-57
2022/08/08 10:03:17;;;;;;;2.10;1.90;;;;;;;;;;10466489;28;20511;-58
2022/08/08 10:08:18;;;;;;;4.43;1.80;;;;;;;;;;10487750;28;20031;-57
2022/08/08 10:13:21;;;;;;;2.10;1.90;;;;;;;;;;10467221;28;20025;-58
2022/08/08 10:18:30;;;;;;;2.60;2.05;;;;;;;;;;10471925;28;20089;-59
2022/08/08 10:23:33;;;;;;;2.53;1.83;;;;;;;;;;10474864;28;20637;-58
2022/08/08 10:28:36;;;;;;;2.45;1.98;;;;;;;;;;10476683;28;20020;-57
2022/08/08 10:33:37;;;;;;;2.22;2.03;;;;;;;;;;10476123;28;20025;-57
2022/08/08 10:38:38;;;;;;;2.55;2.35;;;;;;;;;;10505647;28;20032;-57
2022/08/08 10:43:40;;;;;;;2.00;1.90;;;;;;;;;;10474791;28;20028;-58
2022/08/08 10:48:44;;;;;;;3.03;2.00;;;;;;;;;;10490046;28;20132;-58
2022/08/08 10:53:51;;;;;;;2.60;2.40;;;;;;;;;;10455700;28;20029;-58
2022/08/08 10:59:08;;;;;;;2.43;2.20;;;;;;;;;;10456549;28;20044;-57
2022/08/08 11:04:09;;;;;;;5.07;2.53;;;;;;;;;;10483617;28;20115;-57
2022/08/08 11:09:11;;;;;;;2.35;2.20;;;;;;;;;;10497451;28;20485;-58
2022/08/08 11:14:13;;;;;;;2.50;2.30;;;;;;;;;;10480709;28;20119;-57
2022/08/08 11:19:15;;;;;;;2.30;2.10;;;;;;;;;;10484187;28;20119;-57
2022/08/08 11:24:16;;;;;;;2.50;2.30;;;;;;;;;;10482045;28;20482;-57
2022/08/08 11:29:17;;;;;;;2.03;1.92;;;;;;;;;;10482861;28;20116;-56
2022/08/08 11:34:21;;;;;;;2.75;2.55;;;;;;;;;;10512675;28;20020;-57
2022/08/08 11:39:23;;;;;;;2.38;2.13;;;;;;;;;;10469007;28;20036;-57
2022/08/08 11:44:24;;;;;;;5.53;2.63;;;;;;;;;;10494776;28;20033;-57
2022/08/08 11:49:26;;;;;;;3.42;2.50;;;;;;;;;;10495785;28;20389;-57
2022/08/08 11:54:32;;;;;;;2.92;2.47;;;;;;;;;;10496427;28;20024;-57
2022/08/08 11:59:33;;;;;;;3.42;2.70;;;;;;;;;;10480090;28;20510;-57
2022/08/08 12:04:38;;;;;;;5.05;2.58;;;;;;;;;;10481042;28;20426;-57
2022/08/08 12:09:39;;;;;;;3.85;2.67;;;;;;;;;;10479595;28;20037;-57
2022/08/08 12:14:40;;;;;;;2.72;2.53;;;;;;;;;;10492445;28;20021;-57
2022/08/08 12:19:41;;;;;;;2.42;2.22;;;;;;;;;;10495235;28;20040;-58
2022/08/08 12:24:48;;;;;;;3.75;3.00;;;;;;;;;;10493052;28;20024;-57
2022/08/08 12:29:58;;;;;;;2.75;2.45;;;;;;;;;;10494373;28;20036;-57
2022/08/08 12:35:01;;;;;;;4.45;2.92;;;;;;;;;;10494212;28;20060;-59
2022/08/08 12:40:15;;;;;;;4.20;2.50;;;;;;;;;;10494334;28;20024;-57
2022/08/08 12:45:16;;;;;;;2.92;2.72;;;;;;;;;;10494290;28;20052;-58
2022/08/08 12:50:16;;;;;;;3.58;2.90;;;;;;;;;;10494165;28;20472;-59
2022/08/08 12:55:17;;;;;;;3.33;3.03;;;;;;;;;;10491839;28;20021;-57
2022/08/08 13:00:28;;;;;;;3.10;2.80;;;;;;;;;;10466159;28;20024;-57
2022/08/08 13:05:29;;;;;;;3.03;2.78;;;;;;;;;;10479039;28;20097;-57
2022/08/08 13:10:32;;;;;;;2.85;2.65;;;;;;;;;;10479185;28;20032;-58
2022/08/08 13:15:32;;;;;;;3.72;2.92;;;;;;;;;;10478745;28;20123;-57
2022/08/08 13:20:45;;;;;;;4.55;3.13;;;;;;;;;;10465251;28;20021;-58
2022/08/08 13:25:46;;;;;;;3.63;3.00;;;;;;;;;;10471407;28;20028;-57
2022/08/08 13:30:47;;;;;;;2.78;2.58;;;;;;;;;;10492221;28;20402;-57
2022/08/08 13:35:48;;;;;;;9.48;2.97;;;;;;;;;;10465286;28;20489;-57
2022/08/08 13:40:49;;;;;;;3.15;2.85;;;;;;;;;;10475792;28;20035;-58
2022/08/08 13:45:49;;;;;;;3.78;2.67;;;;;;;;;;10479228;28;20052;-58
2022/08/08 13:50:50;;;;;;;3.20;2.85;;;;;;;;;;10487985;28;20353;-58
2022/08/08 13:56:03;;;;;;;3.33;2.90;;;;;;;;;;10471752;28;20025;-57
2022/08/08 14:01:16;;;;;;;3.10;2.85;;;;;;;;;;10484008;28;20059;-57
2022/08/08 14:06:17;;;;;;;3.30;3.00;;;;;;;;;;10490984;28;20052;-57
2022/08/08 14:11:28;;;;;;;2.80;2.60;;;;;;;;;;10484164;28;20055;-57
2022/08/08 14:16:35;;;;;;;4.85;2.60;;;;;;;;;;10456024;28;20377;-57
2022/08/08 14:21:42;;;;;;;3.30;2.88;;;;;;;;;;10483155;28;20040;-58
2022/08/08 14:26:44;;;;;;;3.30;3.00;;;;;;;;;;10470503;28;20032;-58
2022/08/08 14:31:50;;;;;;;3.00;2.80;;;;;;;;;;10489314;28;20797;-58
2022/08/08 14:36:50;;;;;;;3.00;2.70;;;;;;;;;;10489930;28;20025;-57
2022/08/08 14:42:02;;;;;;;3.67;3.08;;;;;;;;;;10490391;28;20025;-57
2022/08/08 14:47:05;;;;;;;3.17;2.88;;;;;;;;;;10489749;28;20035;-58
2022/08/08 14:52:08;;;;;;;3.50;3.20;;;;;;;;;;10489798;28;20023;-58
2022/08/08 14:57:08;;;;;;;3.00;2.70;;;;;;;;;;10475150;28;20033;-57
2022/08/08 15:02:09;;;;;;;4.00;2.90;;;;;;;;;;10489824;28;20028;-57
2022/08/08 15:07:09;;;;;;;4.50;2.92;;;;;;;;;;10488896;28;20492;-57
2022/08/08 15:12:10;;;;;;;3.65;3.00;;;;;;;;;;10489716;28;20550;-58
2022/08/08 15:17:10;;;;;;;2.90;2.70;;;;;;;;;;10447821;28;20131;-59
2022/08/08 15:22:12;;;;;;;3.50;2.92;;;;;;;;;;10486363;28;20024;-58
2022/08/08 15:27:13;;;;;;;3.25;2.88;;;;;;;;;;10489151;28;20035;-58
2022/08/08 15:32:14;;;;;;;5.18;2.92;;;;;;;;;;10478005;28;20061;-58
2022/08/08 15:37:16;;;;;;;4.32;2.80;;;;;;;;;;10475775;28;20027;-58
2022/08/08 15:42:19;;;;;;;3.05;2.78;;;;;;;;;;10463519;28;20055;-57
2022/08/08 15:47:21;;;;;;;3.00;2.80;;;;;;;;;;10477990;28;20365;-58
2022/08/08 15:52:23;;;;;;;3.65;3.13;;;;;;;;;;10481997;28;20439;-57
2022/08/08 15:57:23;;;;;;;4.40;3.55;;;;;;;;;;10467496;28;20041;-58
2022/08/08 16:02:24;;;;;;;3.85;2.85;;;;;;;;;;10481997;28;20024;-57
2022/08/08 16:07:25;;;;;;;3.53;3.22;;;;;;;;;;10492663;28;20377;-57
2022/08/08 16:12:26;;;;;;;4.57;2.85;;;;;;;;;;10472579;28;20581;-57
2022/08/08 16:17:26;;;;;;;3.05;2.85;;;;;;;;;;10465345;28;20177;-58
2022/08/08 16:22:27;;;;;;;3.20;2.90;;;;;;;;;;10476489;28;20025;-57
2022/08/08 16:27:27;;;;;;;3.30;2.97;;;;;;;;;;10481860;28;20031;-58
2022/08/08 16:32:28;;;;;;;3.60;3.08;;;;;;;;;;10493001;28;20029;-57
2022/08/08 16:37:29;;;;;;;3.88;3.22;;;;;;;;;;10491513;28;20032;-57
2022/08/08 16:42:29;;;;;;;9.60;3.55;;;;;;;;;;10484815;28;20048;-59
2022/08/08 16:47:30;;;;;;;3.70;3.40;;;;;;;;;;10492676;28;20029;-58
2022/08/08 16:52:31;;;;;;;4.32;3.40;;;;;;;;;;10491762;28;20025;-58
2022/08/08 16:57:32;;;;;;;5.55;3.70;;;;;;;;;;10470661;28;20307;-59
2022/08/08 17:02:33;;;;;;;5.40;4.00;;;;;;;;;;10470454;28;20285;-59
2022/08/08 17:07:34;;;;;;;6.40;4.13;;;;;;;;;;10477735;28;20119;-58
2022/08/08 17:12:35;;;;;;;5.68;4.05;;;;;;;;;;10478741;28;20048;-57
2022/08/08 17:17:37;;;;;;;6.10;4.15;;;;;;;;;;10491967;28;20032;-58
2022/08/08 17:22:38;;;;;;;6.22;3.80;;;;;;;;;;10490636;28;20299;-58
2022/08/08 17:27:39;;;;;;;4.45;3.83;;;;;;;;;;10477399;28;20033;-58
2022/08/08 17:32:39;;;;;;;5.47;4.03;;;;;;;;;;10477977;28;20032;-57
2022/08/08 17:37:40;;;;;;;4.75;3.90;;;;;;;;;;10478569;28;20115;-58
2022/08/08 17:42:43;;;;;;;4.65;3.60;;;;;;;;;;10487091;28;20511;-58
2022/08/08 17:47:43;;;;;;;5.85;3.72;;;;;;;;;;10464052;28;20075;-58
2022/08/08 17:52:44;;;;;;;5.47;3.88;;;;;;;;;;10490506;28;20111;-58
2022/08/08 17:57:44;;;;;;;7.25;4.20;;;;;;;;;;10466104;28;20082;-58
2022/08/08 18:02:45;;;;;;;4.05;3.03;;;;;;;;;;10491291;28;20035;-59
2022/08/08 18:07:46;;;;;;;4.57;3.38;;;;;;;;;;10476571;28;20040;-58
2022/08/08 18:12:46;;;;;;;3.85;3.45;;;;;;;;;;10475948;28;20086;-58
2022/08/08 18:17:47;;;;;;;5.82;3.10;;;;;;;;;;10490617;28;20032;-59
2022/08/08 18:22:47;;;;;;;6.80;3.55;;;;;;;;;;10482502;28;20024;-59
2022/08/08 18:27:48;;;;;;;4.22;3.05;;;;;;;;;;10461841;28;20047;-58
2022/08/08 18:32:49;;;;;;;9.15;3.05;;;;;;;;;;10489907;28;20028;-55
2022/08/08 18:37:49;;;;;;;6.57;3.03;;;;;;;;;;10489947;28;20059;-57
2022/08/08 18:42:50;;;;;;;3.55;2.72;;;;;;;;;;10486898;28;20024;-56
2022/08/08 18:47:50;;;;;;;3.50;3.10;;;;;;;;;;10490263;28;20364;-56
2022/08/08 18:52:51;;;;;;;4.63;2.75;;;;;;;;;;10489152;28;20377;-56
2022/08/08 18:57:52;;;;;;;3.83;3.03;;;;;;;;;;10484073;28;20510;-60
2022/08/08 19:02:59;;;;;;;4.82;2.85;;;;;;;;;;10490093;28;20529;-57
2022/08/08 19:08:07;;;;;;;3.92;3.03;;;;;;;;;;10488802;28;20045;-58
2022/08/08 19:13:08;;;;;;;;;;;;;;;;;;10490040;28;20263;-58
2022/08/08 19:18:10;;;;;;;3.00;2.70;;;;;;;;;;10492686;28;20177;-58
2022/08/08 19:23:10;;;;;;;3.35;2.92;;;;;;;;;;10483515;28;20123;-58
2022/08/08 19:28:11;;;;;;;6.47;2.95;;;;;;;;;;10497443;28;20036;-58
2022/08/08 19:33:12;;;;;;;6.97;3.45;;;;;;;;;;10492638;28;20583;-58
2022/08/08 19:38:13;;;;;;;5.15;3.13;;;;;;;;;;10490363;28;20036;-57
2022/08/08 19:43:14;;;;;;;4.85;2.92;;;;;;;;;;10496121;28;20023;-58
2022/08/08 19:48:15;;;;;;;6.80;3.30;;;;;;;;;;10494051;28;20024;-58
2022/08/08 19:53:15;;;;;;;4.75;3.30;;;;;;;;;;10494291;28;20020;-58
2022/08/08 19:58:16;;;;;;;4.25;3.42;;;;;;;;;;10463041;28;20025;-58
2022/08/08 20:03:16;;;;;;;3.00;2.78;;;;;;;;;;10476665;28;20506;-58
2022/08/08 20:08:17;;;;;;;5.60;3.30;;;;;;;;;;10493352;28;20372;-59
2022/08/08 20:13:18;;;;;;;8.90;3.47;;;;;;;;;;10492611;28;20036;-56
2022/08/08 20:18:18;;;;;;;6.47;3.25;;;;;;;;;;10494582;28;20031;-57
2022/08/08 20:23:19;;;;;;;3.40;3.03;;;;;;;;;;10488301;28;20033;-57
2022/08/08 20:28:19;;;;;;;7.60;2.80;;;;;;;;;;10481952;28;20263;-57
2022/08/08 20:33:20;;;;;;;4.45;3.05;;;;;;;;;;10492275;28;20021;-58
2022/08/08 20:38:21;;;;;;;3.75;3.40;;;;;;;;;;10470911;28;20034;-57
2022/08/08 20:43:21;;;;;;;4.32;3.38;;;;;;;;;;10492923;28;20028;-57
2022/08/08 20:48:22;;;;;;;5.13;3.72;;;;;;;;;;10493717;28;20564;-57
2022/08/08 20:53:23;;;;;;;5.38;3.85;;;;;;;;;;10492444;28;20047;-56
2022/08/08 20:58:23;;;;;;;8.85;3.63;;;;;;;;;;10470221;28;20037;-57
2022/08/08 21:03:25;;;;;;;3.78;3.42;;;;;;;;;;10474909;28;20036;-57
2022/08/08 21:08:25;;;;;;;8.52;3.95;;;;;;;;;;10492008;28;20035;-58
2022/08/08 21:13:26;;;;;;;4.60;4.18;;;;;;;;;;10477795;28;20476;-58
2022/08/08 21:18:26;;;;;;;4.60;4.10;;;;;;;;;;10477280;28;20032;-58
2022/08/08 21:23:29;;;;;;;5.03;3.78;;;;;;;;;;10491200;28;20361;-58
2022/08/08 21:28:29;;;;;;;6.57;4.13;;;;;;;;;;10474828;28;20025;-58
2022/08/08 21:33:30;;;;;;;4.82;4.22;;;;;;;;;;10491991;28;20380;-58
2022/08/08 21:38:31;;;;;;;4.30;3.65;;;;;;;;;;10461881;28;20191;-58
2022/08/08 21:43:31;;;;;;;3.92;3.53;;;;;;;;;;10491196;28;20206;-59
2022/08/08 21:48:33;;;;;;;6.25;3.80;;;;;;;;;;10489927;28;20040;-58
2022/08/08 21:53:34;;;;;;;3.70;3.35;;;;;;;;;;10475384;28;20364;-58
2022/08/08 21:58:35;;;;;;;3.92;3.53;;;;;;;;;;10473500;28;20565;-58
2022/08/08 22:03:36;;;;;;;4.25;3.85;;;;;;;;;;10487024;28;20078;-57
2022/08/08 22:08:36;;;;;;;3.72;3.20;;;;;;;;;;10490133;28;20480;-58
2022/08/08 22:13:37;;;;;;;4.88;3.53;;;;;;;;;;10480116;28;20368;-58
2022/08/08 22:18:37;;;;;;;4.40;3.50;;;;;;;;;;10486387;28;20036;-58
2022/08/08 22:23:41;;;;;;;4.95;3.28;;;;;;;;;;10479922;28;20376;-58
2022/08/08 22:28:41;;;;;;;3.75;3.45;;;;;;;;;;10468088;28;20266;-58
2022/08/08 22:33:44;;;;;;;3.60;3.22;;;;;;;;;;10475276;28;20545;-58
2022/08/08 22:38:45;;;;;;;3.78;3.17;;;;;;;;;;10476079;28;20032;-58
2022/08/08 22:43:45;;;;;;;3.70;3.05;;;;;;;;;;10476109;28;20044;-58
2022/08/08 22:48:49;;;;;;;3.38;3.08;;;;;;;;;;10448526;28;20029;-57
2022/08/08 22:53:49;;;;;;;3.40;2.95;;;;;;;;;;10486435;28;20033;-58
2022/08/08 22:58:50;;;;;;;4.55;3.63;;;;;;;;;;10478180;28;20102;-58
2022/08/08 23:03:51;;;;;;;3.90;3.10;;;;;;;;;;10484373;28;20044;-59
2022/08/08 23:08:53;;;;;;;3.30;3.00;;;;;;;;;;10497949;28;20027;-58
2022/08/08 23:13:53;;;;;;;3.40;3.10;;;;;;;;;;10480892;28;20350;-58
2022/08/08 23:18:54;;;;;;;4.20;3.15;;;;;;;;;;10476111;28;20278;-58
2022/08/08 23:23:54;;;;;;;3.30;3.00;;;;;;;;;;10492631;28;20086;-58
2022/08/08 23:28:55;;;;;;;5.18;3.10;;;;;;;;;;10482514;28;20029;-58
2022/08/08 23:33:56;;;;;;;3.17;2.88;;;;;;;;;;10468658;28;20082;-58
2022/08/08 23:38:56;;;;;;;3.42;2.90;;;;;;;;;;10495506;28;20047;-58
2022/08/08 23:43:57;;;;;;;4.07;3.30;;;;;;;;;;10481665;28;20028;-58
2022/08/08 23:48:57;;;;;;;3.17;2.88;;;;;;;;;;10495797;28;20044;-58
2022/08/08 23:53:58;;;;;;;3.78;3.13;;;;;;;;;;10488315;28;20039;-58
2022/08/08 23:58:58;;;;;;;3.05;2.70;;;;;;;;;;10481838;28;20146;-58
